Terminal Aerodrome Forecast
Issued by NWS

Home | Current Version | Previous Version | Text Only | Print | Product List | Glossary On
Versions: 1 2 3 4 5 6 7 8 9 10 11 12 13 14 15 16 17 18 19 20 21 22 23 24 25 26 27 28 29 30 31 32 33 34 35 36 37 38 39 40 41 42 43 44 45 46 47 48 49 50
000
FTAK31 PAFA 291125
TAFAOM
TAF
PAOM 291125Z 2912/3012 17005KT P6SM VCSH BKN010 OVC013
     FM291600 18005KT 4SM -SHRA BR SCT010 BKN017
     FM292100 21006KT P6SM VCSH SCT010 BKN017
     FM300400 26004KT P6SM VCSH SCT010 BKN020
     FM300800 VRB03KT P6SM VCSH SCT007 BKN017=

USA.gov is the U.S. government's official web portal to all federal, state and local government web resources and services.